Terminal Aerodrome Forecast
Issued by NWS Sterling, VA

Current Version | Previous Version | Graphics & Text | Print | Product List | Glossary On
Versions: 1 2 3 4 5 6 7 8 9 10 11 12 13 14 15 16 17 18 19 20 21
000
FTUS41 KLWX 221700
TAFIAD
TAF
KIAD 221739Z 2218/2324 24007KT P6SM -SHRA SCT045 OVC060
     FM221900 24007KT P6SM SCT045 OVC060
     FM230000 32010KT P6SM SCT200
     FM230800 30013G21KT P6SM SCT200
     FM231400 31019G30KT P6SM SCT200
     FM232300 32016KT P6SM FEW200=

USA.gov is the U.S. government's official web portal to all federal, state and local government web resources and services.